sensor_id;sensor_type;location;lat;lon;timestamp;pressure;altitude;pressure_sealevel;temperature;humidity
61436;BME280;47304;47.456;19.160;2023-06-19T00:02:01;100185.98;;;17.92;62.41
61436;BME280;47304;47.456;19.160;2023-06-19T00:04:28;100183.75;;;17.89;62.49
61436;BME280;47304;47.456;19.160;2023-06-19T00:06:54;100186.14;;;17.87;62.51
61436;BME280;47304;47.456;19.160;2023-06-19T00:09:21;100183.91;;;17.85;62.53
61436;BME280;47304;47.456;19.160;2023-06-19T00:11:47;100185.09;;;17.81;62.60
61436;BME280;47304;47.456;19.160;2023-06-19T00:14:14;100191.00;;;17.80;62.70
61436;BME280;47304;47.456;19.160;2023-06-19T00:16:40;100189.27;;;17.78;62.78
61436;BME280;47304;47.456;19.160;2023-06-19T00:19:09;100187.36;;;17.76;62.84
61436;BME280;47304;47.456;19.160;2023-06-19T00:21:36;100185.83;;;17.75;62.84
61436;BME280;47304;47.456;19.160;2023-06-19T00:24:02;100188.55;;;17.73;62.95
61436;BME280;47304;47.456;19.160;2023-06-19T00:26:29;100185.59;;;17.72;63.01
61436;BME280;47304;47.456;19.160;2023-06-19T00:28:56;100183.16;;;17.70;63.05
61436;BME280;47304;47.456;19.160;2023-06-19T00:31:23;100182.52;;;17.68;63.21
61436;BME280;47304;47.456;19.160;2023-06-19T00:33:49;100173.89;;;17.67;63.17
61436;BME280;47304;47.456;19.160;2023-06-19T00:36:16;100173.73;;;17.66;63.12
61436;BME280;47304;47.456;19.160;2023-06-19T00:38:43;100174.13;;;17.64;63.32
61436;BME280;47304;47.456;19.160;2023-06-19T00:41:09;100168.68;;;17.63;63.33
61436;BME280;47304;47.456;19.160;2023-06-19T00:43:36;100166.61;;;17.61;63.48
61436;BME280;47304;47.456;19.160;2023-06-19T00:46:03;100170.21;;;17.60;63.53
61436;BME280;47304;47.456;19.160;2023-06-19T00:48:30;100169.20;;;17.58;63.63
61436;BME280;47304;47.456;19.160;2023-06-19T00:50:57;100170.87;;;17.56;63.69
61436;BME280;47304;47.456;19.160;2023-06-19T00:53:25;100171.48;;;17.53;63.72
61436;BME280;47304;47.456;19.160;2023-06-19T00:55:53;100174.89;;;17.52;63.91
61436;BME280;47304;47.456;19.160;2023-06-19T00:58:21;100175.12;;;17.50;64.08
61436;BME280;47304;47.456;19.160;2023-06-19T01:00:48;100169.33;;;17.48;64.07
61436;BME280;47304;47.456;19.160;2023-06-19T01:03:33;100164.09;;;17.47;64.07
61436;BME280;47304;47.456;19.160;2023-06-19T01:06:00;100168.58;;;17.44;64.19
61436;BME280;47304;47.456;19.160;2023-06-19T01:09:10;100167.73;;;17.43;64.26
61436;BME280;47304;47.456;19.160;2023-06-19T01:11:19;100165.30;;;17.41;64.40
61436;BME280;47304;47.456;19.160;2023-06-19T01:14:00;100165.36;;;17.40;64.46
61436;BME280;47304;47.456;19.160;2023-06-19T01:16:30;100164.56;;;17.37;64.58
61436;BME280;47304;47.456;19.160;2023-06-19T01:18:57;100165.13;;;17.36;64.67
61436;BME280;47304;47.456;19.160;2023-06-19T01:21:24;100162.36;;;17.34;64.79
61436;BME280;47304;47.456;19.160;2023-06-19T01:23:50;100164.36;;;17.32;64.67
61436;BME280;47304;47.456;19.160;2023-06-19T01:26:17;100170.08;;;17.30;64.79
61436;BME280;47304;47.456;19.160;2023-06-19T01:28:45;100171.59;;;17.27;64.94
61436;BME280;47304;47.456;19.160;2023-06-19T01:31:23;100174.85;;;17.25;65.06
61436;BME280;47304;47.456;19.160;2023-06-19T01:33:52;100172.56;;;17.25;65.27
61436;BME280;47304;47.456;19.160;2023-06-19T01:36:20;100171.58;;;17.22;65.24
61436;BME280;47304;47.456;19.160;2023-06-19T01:38:48;100166.89;;;17.19;65.38
61436;BME280;47304;47.456;19.160;2023-06-19T01:41:15;100162.88;;;17.17;65.56
61436;BME280;47304;47.456;19.160;2023-06-19T01:43:43;100159.05;;;17.15;65.65
61436;BME280;47304;47.456;19.160;2023-06-19T01:46:10;100156.11;;;17.13;65.60
61436;BME280;47304;47.456;19.160;2023-06-19T01:48:38;100147.66;;;17.11;65.63
61436;BME280;47304;47.456;19.160;2023-06-19T01:51:05;100146.11;;;17.10;65.68
61436;BME280;47304;47.456;19.160;2023-06-19T01:53:31;100147.05;;;17.08;65.83
61436;BME280;47304;47.456;19.160;2023-06-19T01:55:58;100146.92;;;17.06;65.82
61436;BME280;47304;47.456;19.160;2023-06-19T01:58:25;100146.80;;;17.05;65.89
61436;BME280;47304;47.456;19.160;2023-06-19T02:00:51;100147.38;;;17.03;65.98
61436;BME280;47304;47.456;19.160;2023-06-19T02:03:18;100145.31;;;17.02;65.97
61436;BME280;47304;47.456;19.160;2023-06-19T02:05:45;100147.33;;;16.99;66.10
61436;BME280;47304;47.456;19.160;2023-06-19T02:08:11;100151.97;;;16.97;66.26
61436;BME280;47304;47.456;19.160;2023-06-19T02:10:38;100156.27;;;16.95;66.28
61436;BME280;47304;47.456;19.160;2023-06-19T02:13:05;100151.73;;;16.93;66.13
61436;BME280;47304;47.456;19.160;2023-06-19T02:15:31;100152.12;;;16.92;66.35
61436;BME280;47304;47.456;19.160;2023-06-19T02:17:59;100154.34;;;16.89;66.40
61436;BME280;47304;47.456;19.160;2023-06-19T02:20:26;100156.48;;;16.87;66.47
61436;BME280;47304;47.456;19.160;2023-06-19T02:22:53;100156.73;;;16.85;66.56
61436;BME280;47304;47.456;19.160;2023-06-19T02:25:19;100153.77;;;16.84;66.59
61436;BME280;47304;47.456;19.160;2023-06-19T02:27:46;100155.59;;;16.82;66.74
61436;BME280;47304;47.456;19.160;2023-06-19T02:30:13;100153.59;;;16.78;66.78
61436;BME280;47304;47.456;19.160;2023-06-19T02:32:39;100151.41;;;16.74;67.07
61436;BME280;47304;47.456;19.160;2023-06-19T02:35:10;100152.55;;;16.71;67.23
61436;BME280;47304;47.456;19.160;2023-06-19T02:37:37;100151.36;;;16.69;67.28
61436;BME280;47304;47.456;19.160;2023-06-19T02:40:04;100155.81;;;16.68;67.50
61436;BME280;47304;47.456;19.160;2023-06-19T02:42:31;100165.91;;;16.67;67.71
61436;BME280;47304;47.456;19.160;2023-06-19T02:44:58;100170.56;;;16.66;67.78
61436;BME280;47304;47.456;19.160;2023-06-19T02:47:24;100167.55;;;16.66;67.90
61436;BME280;47304;47.456;19.160;2023-06-19T02:49:51;100173.55;;;16.66;67.97
61436;BME280;47304;47.456;19.160;2023-06-19T02:52:18;100176.89;;;16.67;67.95
61436;BME280;47304;47.456;19.160;2023-06-19T02:54:44;100172.48;;;16.66;67.93
61436;BME280;47304;47.456;19.160;2023-06-19T02:57:11;100170.75;;;16.65;67.93
61436;BME280;47304;47.456;19.160;2023-06-19T02:59:37;100174.09;;;16.66;67.85
61436;BME280;47304;47.456;19.160;2023-06-19T03:02:04;100172.67;;;16.66;67.79
61436;BME280;47304;47.456;19.160;2023-06-19T03:04:31;100168.80;;;16.66;67.77
61436;BME280;47304;47.456;19.160;2023-06-19T03:06:57;100169.48;;;16.67;67.62
61436;BME280;47304;47.456;19.160;2023-06-19T03:09:24;100166.45;;;16.67;67.63
61436;BME280;47304;47.456;19.160;2023-06-19T03:11:50;100165.20;;;16.68;67.46
61436;BME280;47304;47.456;19.160;2023-06-19T03:14:17;100161.98;;;16.69;67.51
61436;BME280;47304;47.456;19.160;2023-06-19T03:16:45;100166.92;;;16.69;67.44
61436;BME280;47304;47.456;19.160;2023-06-19T03:19:12;100166.81;;;16.67;67.49
61436;BME280;47304;47.456;19.160;2023-06-19T03:21:39;100168.23;;;16.67;67.58
61436;BME280;47304;47.456;19.160;2023-06-19T03:24:06;100168.92;;;16.67;67.55
61436;BME280;47304;47.456;19.160;2023-06-19T03:26:32;100174.73;;;16.68;67.69
61436;BME280;47304;47.456;19.160;2023-06-19T03:28:59;100175.95;;;16.70;67.72
61436;BME280;47304;47.456;19.160;2023-06-19T03:31:25;100185.30;;;16.69;67.65
61436;BME280;47304;47.456;19.160;2023-06-19T03:33:52;100190.79;;;16.70;67.52
61436;BME280;47304;47.456;19.160;2023-06-19T03:36:19;100198.85;;;16.73;67.58
61436;BME280;47304;47.456;19.160;2023-06-19T03:38:45;100197.23;;;16.74;67.60
61436;BME280;47304;47.456;19.160;2023-06-19T03:41:12;100196.84;;;16.75;67.79
61436;BME280;47304;47.456;19.160;2023-06-19T03:43:38;100197.95;;;16.79;68.22
61436;BME280;47304;47.456;19.160;2023-06-19T03:46:05;100203.67;;;16.83;67.90
61436;BME280;47304;47.456;19.160;2023-06-19T03:48:32;100207.00;;;16.84;68.00
61436;BME280;47304;47.456;19.160;2023-06-19T03:50:59;100203.34;;;16.89;68.39
61436;BME280;47304;47.456;19.160;2023-06-19T03:53:25;100199.87;;;16.93;68.83
61436;BME280;47304;47.456;19.160;2023-06-19T03:55:52;100193.66;;;17.00;68.84
61436;BME280;47304;47.456;19.160;2023-06-19T03:58:21;100195.42;;;17.06;69.02
61436;BME280;47304;47.456;19.160;2023-06-19T04:00:48;100198.45;;;17.11;68.91
61436;BME280;47304;47.456;19.160;2023-06-19T04:03:14;100200.39;;;17.18;68.91
61436;BME280;47304;47.456;19.160;2023-06-19T04:05:41;100203.09;;;17.22;68.95
61436;BME280;47304;47.456;19.160;2023-06-19T04:08:08;100196.61;;;17.26;68.90
61436;BME280;47304;47.456;19.160;2023-06-19T04:10:35;100193.14;;;17.29;68.90
61436;BME280;47304;47.456;19.160;2023-06-19T04:13:01;100190.41;;;17.32;68.72
61436;BME280;47304;47.456;19.160;2023-06-19T04:15:28;100192.08;;;17.35;68.72
61436;BME280;47304;47.456;19.160;2023-06-19T04:17:54;100191.64;;;17.38;68.55
61436;BME280;47304;47.456;19.160;2023-06-19T04:20:21;100191.73;;;17.40;68.58
61436;BME280;47304;47.456;19.160;2023-06-19T04:22:48;100192.50;;;17.43;68.40
61436;BME280;47304;47.456;19.160;2023-06-19T04:25:14;100195.23;;;17.47;68.27
61436;BME280;47304;47.456;19.160;2023-06-19T04:27:41;100197.66;;;17.49;68.20
61436;BME280;47304;47.456;19.160;2023-06-19T04:30:08;100199.34;;;17.52;68.01
61436;BME280;47304;47.456;19.160;2023-06-19T04:32:34;100201.52;;;17.55;67.88
61436;BME280;47304;47.456;19.160;2023-06-19T04:35:01;100203.88;;;17.59;67.80
61436;BME280;47304;47.456;19.160;2023-06-19T04:37:28;100203.56;;;17.64;67.82
61436;BME280;47304;47.456;19.160;2023-06-19T04:39:54;100204.30;;;17.68;67.67
61436;BME280;47304;47.456;19.160;2023-06-19T04:42:21;100197.09;;;17.72;67.22
61436;BME280;47304;47.456;19.160;2023-06-19T04:44:48;100199.60;;;17.77;66.93
61436;BME280;47304;47.456;19.160;2023-06-19T04:47:17;100198.00;;;17.82;66.80
61436;BME280;47304;47.456;19.160;2023-06-19T04:49:45;100198.70;;;17.88;66.83
61436;BME280;47304;47.456;19.160;2023-06-19T04:52:12;100196.94;;;17.93;66.70
61436;BME280;47304;47.456;19.160;2023-06-19T04:54:39;100197.85;;;17.98;66.21
61436;BME280;47304;47.456;19.160;2023-06-19T04:57:06;100198.05;;;18.03;65.87
61436;BME280;47304;47.456;19.160;2023-06-19T04:59:33;100200.84;;;18.09;65.91
61436;BME280;47304;47.456;19.160;2023-06-19T05:01:59;100201.48;;;18.16;65.88
61436;BME280;47304;47.456;19.160;2023-06-19T05:04:26;100203.71;;;18.24;66.15
61436;BME280;47304;47.456;19.160;2023-06-19T05:06:53;100203.72;;;18.29;65.88
61436;BME280;47304;47.456;19.160;2023-06-19T05:09:19;100201.23;;;18.34;65.10
61436;BME280;47304;47.456;19.160;2023-06-19T05:11:46;100201.87;;;18.41;64.93
61436;BME280;47304;47.456;19.160;2023-06-19T05:14:12;100206.95;;;18.48;64.73
61436;BME280;47304;47.456;19.160;2023-06-19T05:16:39;100210.29;;;18.53;65.04
61436;BME280;47304;47.456;19.160;2023-06-19T05:19:06;100220.23;;;18.58;64.72
61436;BME280;47304;47.456;19.160;2023-06-19T05:21:33;100225.81;;;18.61;64.10
61436;BME280;47304;47.456;19.160;2023-06-19T05:23:59;100228.23;;;18.68;63.94
61436;BME280;47304;47.456;19.160;2023-06-19T05:26:26;100229.86;;;18.72;64.02
61436;BME280;47304;47.456;19.160;2023-06-19T05:28:52;100232.18;;;18.76;64.49
61436;BME280;47304;47.456;19.160;2023-06-19T05:31:19;100234.50;;;18.81;64.23
61436;BME280;47304;47.456;19.160;2023-06-19T05:33:46;100234.02;;;18.84;64.57
61436;BME280;47304;47.456;19.160;2023-06-19T05:36:12;100228.08;;;18.86;64.55
61436;BME280;47304;47.456;19.160;2023-06-19T05:38:39;100226.21;;;18.89;64.52
61436;BME280;47304;47.456;19.160;2023-06-19T05:41:05;100228.77;;;18.93;64.85
61436;BME280;47304;47.456;19.160;2023-06-19T05:43:32;100230.23;;;18.96;64.82
61436;BME280;47304;47.456;19.160;2023-06-19T05:45:58;100228.62;;;19.01;64.89
61436;BME280;47304;47.456;19.160;2023-06-19T05:48:26;100232.11;;;19.08;64.57
61436;BME280;47304;47.456;19.160;2023-06-19T05:50:52;100227.95;;;19.14;63.92
61436;BME280;47304;47.456;19.160;2023-06-19T05:53:19;100232.70;;;19.21;63.73
61436;BME280;47304;47.456;19.160;2023-06-19T05:55:45;100234.52;;;19.29;63.68
61436;BME280;47304;47.456;19.160;2023-06-19T05:58:12;100237.25;;;19.36;63.39
61436;BME280;47304;47.456;19.160;2023-06-19T06:00:38;100241.20;;;19.44;63.45
61436;BME280;47304;47.456;19.160;2023-06-19T06:03:05;100241.42;;;19.52;63.33
61436;BME280;47304;47.456;19.160;2023-06-19T06:05:32;100247.65;;;19.61;63.42
61436;BME280;47304;47.456;19.160;2023-06-19T06:07:58;100249.97;;;19.70;62.99
61436;BME280;47304;47.456;19.160;2023-06-19T06:10:24;100251.96;;;19.77;62.85
61436;BME280;47304;47.456;19.160;2023-06-19T06:12:52;100258.80;;;19.85;62.65
61436;BME280;47304;47.456;19.160;2023-06-19T06:15:18;100253.19;;;19.92;63.00
61436;BME280;47304;47.456;19.160;2023-06-19T06:17:45;100251.76;;;20.01;63.22
61436;BME280;47304;47.456;19.160;2023-06-19T06:20:11;100256.68;;;20.11;63.32
61436;BME280;47304;47.456;19.160;2023-06-19T06:22:39;100250.42;;;20.20;63.04
61436;BME280;47304;47.456;19.160;2023-06-19T06:25:06;100248.62;;;20.29;63.01
61436;BME280;47304;47.456;19.160;2023-06-19T06:27:33;100253.50;;;20.39;62.78
61436;BME280;47304;47.456;19.160;2023-06-19T06:30:00;100248.81;;;20.50;62.66
61436;BME280;47304;47.456;19.160;2023-06-19T06:32:27;100247.84;;;20.60;62.24
61436;BME280;47304;47.456;19.160;2023-06-19T06:34:53;100246.87;;;20.70;62.03
61436;BME280;47304;47.456;19.160;2023-06-19T06:37:20;100243.17;;;20.81;62.18
61436;BME280;47304;47.456;19.160;2023-06-19T06:39:46;100246.01;;;20.93;61.51
61436;BME280;47304;47.456;19.160;2023-06-19T06:42:13;100249.61;;;21.04;61.18
61436;BME280;47304;47.456;19.160;2023-06-19T06:44:39;100252.64;;;21.16;60.98
61436;BME280;47304;47.456;19.160;2023-06-19T06:47:06;100258.40;;;21.26;61.09
61436;BME280;47304;47.456;19.160;2023-06-19T06:49:33;100251.47;;;21.37;60.90
61436;BME280;47304;47.456;19.160;2023-06-19T06:51:59;100253.05;;;21.49;60.40
61436;BME280;47304;47.456;19.160;2023-06-19T06:54:26;100255.55;;;21.61;60.08
61436;BME280;47304;47.456;19.160;2023-06-19T06:56:52;100254.79;;;21.73;59.64
61436;BME280;47304;47.456;19.160;2023-06-19T06:59:19;100254.54;;;21.86;59.64
61436;BME280;47304;47.456;19.160;2023-06-19T07:01:46;100251.40;;;21.98;58.71
61436;BME280;47304;47.456;19.160;2023-06-19T07:04:12;100248.45;;;22.11;58.22
61436;BME280;47304;47.456;19.160;2023-06-19T07:06:39;100246.39;;;22.24;58.05
61436;BME280;47304;47.456;19.160;2023-06-19T07:09:05;100248.79;;;22.36;57.06
61436;BME280;47304;47.456;19.160;2023-06-19T07:11:32;100251.02;;;22.49;55.98
61436;BME280;47304;47.456;19.160;2023-06-19T07:13:58;100252.04;;;22.60;55.23
61436;BME280;47304;47.456;19.160;2023-06-19T07:16:25;100249.80;;;22.72;54.47
61436;BME280;47304;47.456;19.160;2023-06-19T07:18:52;100247.98;;;22.83;53.66
61436;BME280;47304;47.456;19.160;2023-06-19T07:21:18;100244.20;;;22.94;53.46
61436;BME280;47304;47.456;19.160;2023-06-19T07:23:45;100242.27;;;23.03;53.20
61436;BME280;47304;47.456;19.160;2023-06-19T07:26:12;100242.74;;;23.14;52.94
61436;BME280;47304;47.456;19.160;2023-06-19T07:28:39;100241.48;;;23.25;52.94
61436;BME280;47304;47.456;19.160;2023-06-19T07:31:05;100239.66;;;23.35;53.26
61436;BME280;47304;47.456;19.160;2023-06-19T07:33:32;100238.42;;;23.44;53.16
61436;BME280;47304;47.456;19.160;2023-06-19T07:35:58;100234.45;;;23.55;53.28
61436;BME280;47304;47.456;19.160;2023-06-19T07:38:25;100238.61;;;23.67;53.62
61436;BME280;47304;47.456;19.160;2023-06-19T07:40:52;100242.73;;;23.76;53.12
61436;BME280;47304;47.456;19.160;2023-06-19T07:43:18;100240.08;;;23.85;52.90
61436;BME280;47304;47.456;19.160;2023-06-19T07:45:45;100242.94;;;23.94;53.35
61436;BME280;47304;47.456;19.160;2023-06-19T07:48:11;100240.31;;;24.06;53.08
61436;BME280;47304;47.456;19.160;2023-06-19T07:50:38;100243.52;;;24.18;52.86
61436;BME280;47304;47.456;19.160;2023-06-19T07:53:04;100238.75;;;24.29;51.20
61436;BME280;47304;47.456;19.160;2023-06-19T07:55:32;100238.33;;;24.39;50.09
61436;BME280;47304;47.456;19.160;2023-06-19T07:57:59;100236.83;;;24.50;49.87
61436;BME280;47304;47.456;19.160;2023-06-19T08:00:26;100234.74;;;24.60;50.08
61436;BME280;47304;47.456;19.160;2023-06-19T08:02:53;100231.25;;;24.71;50.08
61436;BME280;47304;47.456;19.160;2023-06-19T08:05:20;100229.49;;;24.82;48.90
61436;BME280;47304;47.456;19.160;2023-06-19T08:07:47;100233.17;;;24.92;49.02
61436;BME280;47304;47.456;19.160;2023-06-19T08:10:13;100230.17;;;25.03;48.59
61436;BME280;47304;47.456;19.160;2023-06-19T08:12:41;100229.34;;;25.13;48.26
61436;BME280;47304;47.456;19.160;2023-06-19T08:15:09;100226.86;;;25.24;48.83
61436;BME280;47304;47.456;19.160;2023-06-19T08:17:36;100226.39;;;25.37;48.31
61436;BME280;47304;47.456;19.160;2023-06-19T08:20:02;100224.59;;;25.49;47.17
61436;BME280;47304;47.456;19.160;2023-06-19T08:22:29;100224.60;;;25.60;46.97
61436;BME280;47304;47.456;19.160;2023-06-19T08:24:56;100224.86;;;25.72;47.17
61436;BME280;47304;47.456;19.160;2023-06-19T08:27:22;100222.77;;;25.85;47.41
61436;BME280;47304;47.456;19.160;2023-06-19T08:29:49;100222.16;;;25.97;47.28
61436;BME280;47304;47.456;19.160;2023-06-19T08:32:16;100227.11;;;26.06;45.76
61436;BME280;47304;47.456;19.160;2023-06-19T08:34:42;100224.66;;;26.13;45.87
61436;BME280;47304;47.456;19.160;2023-06-19T08:37:09;100228.95;;;26.19;45.37
61436;BME280;47304;47.456;19.160;2023-06-19T08:39:36;100230.20;;;26.22;45.02
61436;BME280;47304;47.456;19.160;2023-06-19T08:42:03;100230.23;;;26.24;44.75
61436;BME280;47304;47.456;19.160;2023-06-19T08:44:29;100230.59;;;26.24;44.85
61436;BME280;47304;47.456;19.160;2023-06-19T08:46:57;100234.66;;;26.27;45.83
61436;BME280;47304;47.456;19.160;2023-06-19T08:49:24;100231.33;;;26.31;45.35
61436;BME280;47304;47.456;19.160;2023-06-19T08:51:50;100228.70;;;26.33;44.37
61436;BME280;47304;47.456;19.160;2023-06-19T08:54:17;100229.65;;;26.35;43.80
61436;BME280;47304;47.456;19.160;2023-06-19T08:56:47;100229.98;;;26.38;43.85
61436;BME280;47304;47.456;19.160;2023-06-19T08:59:15;100233.20;;;26.46;43.71
61436;BME280;47304;47.456;19.160;2023-06-19T09:01:52;100225.58;;;26.53;43.58
61436;BME280;47304;47.456;19.160;2023-06-19T09:04:24;100229.98;;;26.61;43.82
61436;BME280;47304;47.456;19.160;2023-06-19T09:06:52;100225.64;;;26.70;43.37
61436;BME280;47304;47.456;19.160;2023-06-19T09:09:20;100222.55;;;26.78;42.96
61436;BME280;47304;47.456;19.160;2023-06-19T09:12:00;100221.09;;;26.84;42.43
61436;BME280;47304;47.456;19.160;2023-06-19T09:14:38;100221.64;;;26.91;42.66
61436;BME280;47304;47.456;19.160;2023-06-19T09:17:07;100222.02;;;26.99;42.26
61436;BME280;47304;47.456;19.160;2023-06-19T09:19:37;100220.48;;;27.05;41.45
61436;BME280;47304;47.456;19.160;2023-06-19T09:22:06;100225.54;;;27.12;40.85
61436;BME280;47304;47.456;19.160;2023-06-19T09:24:38;100220.69;;;27.20;40.49
61436;BME280;47304;47.456;19.160;2023-06-19T09:27:16;100219.40;;;27.30;40.96
61436;BME280;47304;47.456;19.160;2023-06-19T09:29:45;100217.00;;;27.38;41.25
61436;BME280;47304;47.456;19.160;2023-06-19T09:32:15;100218.91;;;27.44;41.30
61436;BME280;47304;47.456;19.160;2023-06-19T09:34:42;100218.71;;;27.55;41.53
61436;BME280;47304;47.456;19.160;2023-06-19T09:37:09;100217.75;;;27.65;41.63
61436;BME280;47304;47.456;19.160;2023-06-19T09:39:39;100214.42;;;27.76;41.50
61436;BME280;47304;47.456;19.160;2023-06-19T09:42:08;100216.11;;;27.87;41.68
61436;BME280;47304;47.456;19.160;2023-06-19T09:44:46;100220.70;;;27.95;40.69
61436;BME280;47304;47.456;19.160;2023-06-19T09:47:16;100214.79;;;28.02;40.10
61436;BME280;47304;47.456;19.160;2023-06-19T09:49:54;100214.36;;;28.08;39.83
61436;BME280;47304;47.456;19.160;2023-06-19T09:52:22;100213.31;;;28.15;39.59
61436;BME280;47304;47.456;19.160;2023-06-19T09:54:50;100212.14;;;28.21;39.67
61436;BME280;47304;47.456;19.160;2023-06-19T09:57:17;100209.91;;;28.27;40.36
61436;BME280;47304;47.456;19.160;2023-06-19T09:59:49;100213.05;;;28.35;39.86
61436;BME280;47304;47.456;19.160;2023-06-19T10:02:17;100208.54;;;28.40;38.90
61436;BME280;47304;47.456;19.160;2023-06-19T10:04:53;100199.45;;;28.43;39.43
61436;BME280;47304;47.456;19.160;2023-06-19T10:07:22;100190.71;;;28.47;39.18
61436;BME280;47304;47.456;19.160;2023-06-19T10:10:25;100185.64;;;28.49;38.73
61436;BME280;47304;47.456;19.160;2023-06-19T10:12:54;100182.94;;;28.54;38.26
61436;BME280;47304;47.456;19.160;2023-06-19T10:15:24;100175.13;;;28.57;38.69
61436;BME280;47304;47.456;19.160;2023-06-19T10:17:52;100175.36;;;28.61;38.21
61436;BME280;47304;47.456;19.160;2023-06-19T10:20:36;100177.47;;;28.66;38.09
61436;BME280;47304;47.456;19.160;2023-06-19T10:25:41;100178.30;;;28.72;37.05
61436;BME280;47304;47.456;19.160;2023-06-19T10:28:26;100171.95;;;28.73;37.14
61436;BME280;47304;47.456;19.160;2023-06-19T10:33:30;100168.52;;;28.84;37.18
61436;BME280;47304;47.456;19.160;2023-06-19T10:35:58;100166.60;;;28.87;37.03
61436;BME280;47304;47.456;19.160;2023-06-19T10:38:24;100167.16;;;28.89;36.94
61436;BME280;47304;47.456;19.160;2023-06-19T10:40:52;100161.56;;;28.94;36.88
61436;BME280;47304;47.456;19.160;2023-06-19T10:43:23;100165.67;;;29.01;36.92
61436;BME280;47304;47.456;19.160;2023-06-19T10:45:51;100162.84;;;29.12;37.10
61436;BME280;47304;47.456;19.160;2023-06-19T10:48:23;100161.39;;;29.21;36.87
61436;BME280;47304;47.456;19.160;2023-06-19T10:50:50;100158.31;;;29.30;37.21
61436;BME280;47304;47.456;19.160;2023-06-19T10:53:32;100158.53;;;29.39;37.70
61436;BME280;47304;47.456;19.160;2023-06-19T10:56:00;100158.41;;;29.49;36.34
61436;BME280;47304;47.456;19.160;2023-06-19T10:58:28;100160.60;;;29.57;36.33
61436;BME280;47304;47.456;19.160;2023-06-19T11:00:55;100162.04;;;29.66;35.79
61436;BME280;47304;47.456;19.160;2023-06-19T11:03:22;100158.77;;;29.75;35.45
61436;BME280;47304;47.456;19.160;2023-06-19T11:05:49;100157.86;;;29.81;35.23
61436;BME280;47304;47.456;19.160;2023-06-19T11:08:20;100155.10;;;29.86;35.09
61436;BME280;47304;47.456;19.160;2023-06-19T11:10:47;100153.01;;;29.92;34.39
61436;BME280;47304;47.456;19.160;2023-06-19T11:13:16;100155.02;;;29.96;34.85
61436;BME280;47304;47.456;19.160;2023-06-19T11:15:44;100154.27;;;30.03;35.25
61436;BME280;47304;47.456;19.160;2023-06-19T11:18:11;100151.23;;;30.11;34.30
61436;BME280;47304;47.456;19.160;2023-06-19T11:20:50;100149.33;;;30.16;33.69
61436;BME280;47304;47.456;19.160;2023-06-19T11:23:28;100148.23;;;30.18;33.51
61436;BME280;47304;47.456;19.160;2023-06-19T11:26:03;100151.08;;;30.14;33.08
61436;BME280;47304;47.456;19.160;2023-06-19T11:28:30;100150.65;;;30.07;33.02
61436;BME280;47304;47.456;19.160;2023-06-19T11:30:59;100146.83;;;30.03;33.27
61436;BME280;47304;47.456;19.160;2023-06-19T11:33:26;100142.48;;;30.01;33.50
61436;BME280;47304;47.456;19.160;2023-06-19T11:35:54;100139.23;;;30.03;33.65
61436;BME280;47304;47.456;19.160;2023-06-19T11:38:23;100138.35;;;30.07;33.44
61436;BME280;47304;47.456;19.160;2023-06-19T11:40:50;100138.73;;;30.09;33.71
61436;BME280;47304;47.456;19.160;2023-06-19T11:43:30;100130.67;;;30.12;33.86
61436;BME280;47304;47.456;19.160;2023-06-19T11:46:05;100133.13;;;30.17;33.96
61436;BME280;47304;47.456;19.160;2023-06-19T11:48:32;100131.02;;;30.23;34.90
61436;BME280;47304;47.456;19.160;2023-06-19T11:50:58;100128.89;;;30.29;34.43
61436;BME280;47304;47.456;19.160;2023-06-19T11:53:25;100127.78;;;30.35;34.41
61436;BME280;47304;47.456;19.160;2023-06-19T11:55:52;100125.67;;;30.45;34.49
61436;BME280;47304;47.456;19.160;2023-06-19T11:58:19;100119.85;;;30.54;34.25
61436;BME280;47304;47.456;19.160;2023-06-19T12:00:46;100121.77;;;30.59;33.31
61436;BME280;47304;47.456;19.160;2023-06-19T12:03:13;100125.59;;;30.63;32.91
61436;BME280;47304;47.456;19.160;2023-06-19T12:05:40;100123.67;;;30.62;33.36
61436;BME280;47304;47.456;19.160;2023-06-19T12:08:07;100119.48;;;30.62;33.59
61436;BME280;47304;47.456;19.160;2023-06-19T12:10:34;100122.55;;;30.67;33.90
61436;BME280;47304;47.456;19.160;2023-06-19T12:13:00;100121.14;;;30.68;33.10
61436;BME280;47304;47.456;19.160;2023-06-19T12:15:27;100121.23;;;30.67;33.34
61436;BME280;47304;47.456;19.160;2023-06-19T12:17:53;100118.77;;;30.64;33.80
61436;BME280;47304;47.456;19.160;2023-06-19T12:20:21;100114.22;;;30.65;33.41
61436;BME280;47304;47.456;19.160;2023-06-19T12:22:48;100108.20;;;30.67;34.09
61436;BME280;47304;47.456;19.160;2023-06-19T12:25:15;100108.27;;;30.71;34.42
61436;BME280;47304;47.456;19.160;2023-06-19T12:27:41;100105.55;;;30.71;34.19
61436;BME280;47304;47.456;19.160;2023-06-19T12:30:10;100105.66;;;30.70;33.05
61436;BME280;47304;47.456;19.160;2023-06-19T12:32:36;100102.16;;;30.62;32.43
61436;BME280;47304;47.456;19.160;2023-06-19T12:35:03;100101.45;;;30.52;33.65
61436;BME280;47304;47.456;19.160;2023-06-19T12:37:30;100099.75;;;30.42;34.00
61436;BME280;47304;47.456;19.160;2023-06-19T12:39:57;100093.93;;;30.34;33.97
61436;BME280;47304;47.456;19.160;2023-06-19T12:42:23;100089.64;;;30.28;34.35
61436;BME280;47304;47.456;19.160;2023-06-19T12:44:50;100083.59;;;30.20;34.12
61436;BME280;47304;47.456;19.160;2023-06-19T12:47:16;100079.88;;;30.13;34.22
61436;BME280;47304;47.456;19.160;2023-06-19T12:49:43;100081.64;;;30.08;33.88